Flight Track Log - Related Links

Times and Time Zones

All times are in EST time to prevent confusion due to time zone crossing. See the TAM3904 flight status page for this flight to view local times or setup timezone preferences in your user account.

Time Position Orientation Groundspeed Altitude Reporting Facility
EST Latitude Longitude Course Direction KTS MPH feet Rate Location/Type
Mon 04:23:00 AM -23.5350 -46.1838 78° East  Level Estimated
Mon 04:24:00 AM -23.5217 -46.1165 78° East  Level Estimated
Mon 04:25:00 AM -23.5008 -46.0105 78° East  Level Estimated
Mon 04:26:00 AM -23.4799 -45.9045 78° East  Level Estimated
Mon 04:27:00 AM -23.4588 -45.7985 78° East  Level Estimated
Mon 04:28:00 AM -23.4377 -45.6926 78° East  Level Estimated
Mon 04:29:00 AM -23.4165 -45.5867 78° East  Level Estimated
Mon 04:30:00 AM -23.3953 -45.4808 78° East  Level Estimated
Mon 04:31:00 AM -23.3740 -45.3750 78° East  Level Estimated
Mon 04:32:00 AM -23.3526 -45.2692 78° East  Level Estimated
Mon 04:33:00 AM -23.3311 -45.1634 78° East  Level Estimated
Mon 04:34:00 AM -23.3096 -45.0577 78° East  Level Estimated
Mon 04:35:00 AM -23.2880 -44.9520 77° East  Level Estimated
Mon 04:36:00 AM -23.2663 -44.8464 77° East  Level Estimated
Mon 04:37:00 AM -23.2445 -44.7407 77° East  Level Estimated
Mon 04:38:00 AM -23.2227 -44.6351 77° East  Level Estimated
Mon 04:39:00 AM -23.2008 -44.5296 77° East  Level Estimated
Mon 04:40:00 AM -23.1789 -44.4241 77° East  Level Estimated
Mon 04:41:00 AM -23.1568 -44.3186 77° East  Level Estimated
Mon 04:42:00 AM -23.1347 -44.2131 77° East  Level Estimated
Mon 04:43:00 AM -23.1126 -44.1077 77° East  Level Estimated
Mon 04:44:00 AM -23.0903 -44.0023 77° East  Level Estimated
Mon 04:45:00 AM -23.0680 -43.8970 77° East  Level Estimated
Mon 04:46:00 AM -23.0456 -43.7917 77° East  Level Estimated
Mon 04:47:00 AM -23.0232 -43.6864 77° East  Level Estimated
Mon 04:48:00 AM -23.0007 -43.5811 77° East  Level Estimated
Mon 04:49:00 AM -22.9781 -43.4759 77° East  Level Estimated
Mon 04:50:00 AM -22.9554 -43.3708 77° East  Level Estimated
Mon 04:51:00 AM -22.9327 -43.2656 77° East  Level Estimated
Mon 04:52:00 AM -22.9105 -43.1631 77° East  Level Estimated
Mon 04:53:00 AM -22.9105 -43.1631 250° West  Level Estimated
Mon 04:54:00 AM -22.9105 -43.1631 250° West  Level Estimated
Mon 04:55:00 AM -22.9105 -43.1631 250° West  Level Estimated
Mon 04:56:00 AM -22.9105 -43.1631 250° West  Level Estimated
Mon 04:57:00 AM -22.9105 -43.1631 250° West  Level Estimated
Mon 04:58:00 AM -22.9105 -43.1631 250° West  Level Estimated
Mon 04:59:00 AM -22.9105 -43.1631 250° West  Level Estimated
Mon 05:00:00 AM -22.9105 -43.1631 250° West  Level Estimated
Mon 05:01:00 AM -22.9105 -43.1631 250° West  Level Estimated
Mon 05:02:00 AM -22.9105 -43.1631 250° West  Level Estimated
Mon 05:03:00 AM -22.9105 -43.1631 250° West  Level Estimated
Mon 05:04:00 AM -22.9105 -43.1631 250° West  Level Estimated
Mon 05:05:00 AM -22.9105 -43.1631 250° West  Level Estimated

Login

Don't have an account? Register now (free) for customized features, flight alerts, and more!